sensor_id;sensor_type;location;lat;lon;timestamp;pressure;altitude;pressure_sealevel;temperature;humidity
10720;BME280;5411;58.386;15.560;2023-05-21T00:00:14;101784.69;;;10.52;77.05
10720;BME280;5411;58.386;15.560;2023-05-21T00:02:59;101782.69;;;10.46;77.60
10720;BME280;5411;58.386;15.560;2023-05-21T00:05:27;101780.50;;;10.42;78.83
10720;BME280;5411;58.386;15.560;2023-05-21T00:07:55;101782.03;;;10.36;78.48
10720;BME280;5411;58.386;15.560;2023-05-21T00:10:23;101778.16;;;10.30;78.50
10720;BME280;5411;58.386;15.560;2023-05-21T00:12:52;101776.81;;;10.26;78.70
10720;BME280;5411;58.386;15.560;2023-05-21T00:15:30;101776.16;;;10.24;78.20
10720;BME280;5411;58.386;15.560;2023-05-21T00:18:01;101773.97;;;10.20;78.48
10720;BME280;5411;58.386;15.560;2023-05-21T00:20:30;101785.66;;;10.19;78.73
10720;BME280;5411;58.386;15.560;2023-05-21T00:22:59;101776.09;;;10.16;78.03
10720;BME280;5411;58.386;15.560;2023-05-21T00:25:28;101780.94;;;10.13;79.54
10720;BME280;5411;58.386;15.560;2023-05-21T00:27:57;101777.78;;;10.09;79.65
10720;BME280;5411;58.386;15.560;2023-05-21T00:30:25;101781.59;;;10.07;80.33
10720;BME280;5411;58.386;15.560;2023-05-21T00:32:54;101781.09;;;10.03;81.26
10720;BME280;5411;58.386;15.560;2023-05-21T00:35:26;101780.75;;;9.98;81.58
10720;BME280;5411;58.386;15.560;2023-05-21T00:37:54;101785.59;;;9.94;81.91
10720;BME280;5411;58.386;15.560;2023-05-21T00:40:23;101782.25;;;9.92;82.04
10720;BME280;5411;58.386;15.560;2023-05-21T00:42:52;101783.06;;;9.93;82.61
10720;BME280;5411;58.386;15.560;2023-05-21T00:45:22;101787.75;;;9.91;83.11
10720;BME280;5411;58.386;15.560;2023-05-21T00:47:51;101783.41;;;9.90;82.80
10720;BME280;5411;58.386;15.560;2023-05-21T00:50:21;101782.88;;;9.86;82.21
10720;BME280;5411;58.386;15.560;2023-05-21T00:52:51;101785.75;;;9.85;82.60
10720;BME280;5411;58.386;15.560;2023-05-21T00:55:20;101787.38;;;9.86;82.20
10720;BME280;5411;58.386;15.560;2023-05-21T00:57:48;101782.38;;;9.83;82.46
10720;BME280;5411;58.386;15.560;2023-05-21T01:00:18;101782.56;;;9.81;83.14
10720;BME280;5411;58.386;15.560;2023-05-21T01:02:47;101783.88;;;9.77;83.61
10720;BME280;5411;58.386;15.560;2023-05-21T01:05:15;101786.00;;;9.74;83.17
10720;BME280;5411;58.386;15.560;2023-05-21T01:07:44;101778.16;;;9.72;83.49
10720;BME280;5411;58.386;15.560;2023-05-21T01:10:13;101778.34;;;9.71;84.46
10720;BME280;5411;58.386;15.560;2023-05-21T01:12:43;101781.84;;;9.71;84.75
10720;BME280;5411;58.386;15.560;2023-05-21T01:15:11;101786.19;;;9.72;85.29
10720;BME280;5411;58.386;15.560;2023-05-21T01:17:40;101786.69;;;9.76;85.16
10720;BME280;5411;58.386;15.560;2023-05-21T01:20:12;101787.06;;;9.81;85.34
10720;BME280;5411;58.386;15.560;2023-05-21T01:22:50;101783.88;;;9.85;85.41
10720;BME280;5411;58.386;15.560;2023-05-21T01:25:19;101790.41;;;9.91;85.52
10720;BME280;5411;58.386;15.560;2023-05-21T01:27:48;101783.75;;;9.95;84.74
10720;BME280;5411;58.386;15.560;2023-05-21T01:30:18;101795.28;;;10.04;83.91
10720;BME280;5411;58.386;15.560;2023-05-21T01:32:49;101789.31;;;10.10;84.09
10720;BME280;5411;58.386;15.560;2023-05-21T01:35:26;101793.13;;;10.15;84.31
10720;BME280;5411;58.386;15.560;2023-05-21T01:38:05;101796.38;;;10.19;84.25
10720;BME280;5411;58.386;15.560;2023-05-21T01:40:40;101795.88;;;10.23;83.62
10720;BME280;5411;58.386;15.560;2023-05-21T01:43:13;101799.41;;;10.24;83.69
10720;BME280;5411;58.386;15.560;2023-05-21T01:45:42;101788.84;;;10.22;84.26
10720;BME280;5411;58.386;15.560;2023-05-21T01:48:12;101794.53;;;10.19;82.97
10720;BME280;5411;58.386;15.560;2023-05-21T01:50:44;101800.50;;;10.13;83.00
10720;BME280;5411;58.386;15.560;2023-05-21T01:53:14;101792.31;;;10.07;83.27
10720;BME280;5411;58.386;15.560;2023-05-21T01:55:43;101790.94;;;10.02;83.85
10720;BME280;5411;58.386;15.560;2023-05-21T01:58:11;101795.28;;;9.95;83.43
10720;BME280;5411;58.386;15.560;2023-05-21T02:00:41;101796.75;;;9.90;84.00
10720;BME280;5411;58.386;15.560;2023-05-21T02:03:12;101791.25;;;9.83;84.73
10720;BME280;5411;58.386;15.560;2023-05-21T02:05:40;101792.88;;;9.76;85.72
10720;BME280;5411;58.386;15.560;2023-05-21T02:08:08;101793.69;;;9.69;86.45
10720;BME280;5411;58.386;15.560;2023-05-21T02:10:40;101790.97;;;9.60;85.25
10720;BME280;5411;58.386;15.560;2023-05-21T02:13:08;101794.00;;;9.57;85.12
10720;BME280;5411;58.386;15.560;2023-05-21T02:15:37;101784.47;;;9.55;85.07
10720;BME280;5411;58.386;15.560;2023-05-21T02:18:06;101786.59;;;9.51;86.65
10720;BME280;5411;58.386;15.560;2023-05-21T02:20:35;101791.44;;;9.48;86.71
10720;BME280;5411;58.386;15.560;2023-05-21T02:23:03;101788.56;;;9.41;87.30
10720;BME280;5411;58.386;15.560;2023-05-21T02:25:31;101788.06;;;9.38;87.60
10720;BME280;5411;58.386;15.560;2023-05-21T02:28:02;101787.53;;;9.34;87.34
10720;BME280;5411;58.386;15.560;2023-05-21T02:30:30;101784.00;;;9.34;87.55
10720;BME280;5411;58.386;15.560;2023-05-21T02:32:58;101782.34;;;9.33;88.28
10720;BME280;5411;58.386;15.560;2023-05-21T02:35:28;101785.00;;;9.33;88.82
10720;BME280;5411;58.386;15.560;2023-05-21T02:37:58;101773.47;;;9.32;89.41
10720;BME280;5411;58.386;15.560;2023-05-21T02:40:28;101781.19;;;9.35;89.01
10720;BME280;5411;58.386;15.560;2023-05-21T02:42:58;101782.56;;;9.39;88.93
10720;BME280;5411;58.386;15.560;2023-05-21T02:45:28;101785.41;;;9.46;89.17
10720;BME280;5411;58.386;15.560;2023-05-21T02:47:57;101780.28;;;9.52;89.30
10720;BME280;5411;58.386;15.560;2023-05-21T02:50:26;101788.31;;;9.60;89.56
10720;BME280;5411;58.386;15.560;2023-05-21T02:52:54;101785.00;;;9.67;89.68
10720;BME280;5411;58.386;15.560;2023-05-21T02:55:25;101785.53;;;9.70;88.95
10720;BME280;5411;58.386;15.560;2023-05-21T02:57:53;101777.84;;;9.75;89.27
10720;BME280;5411;58.386;15.560;2023-05-21T03:00:22;101777.19;;;9.81;89.44
10720;BME280;5411;58.386;15.560;2023-05-21T03:02:51;101780.88;;;9.88;88.74
10720;BME280;5411;58.386;15.560;2023-05-21T03:05:20;101778.25;;;9.96;87.38
10720;BME280;5411;58.386;15.560;2023-05-21T03:07:48;101773.75;;;10.05;86.99
10720;BME280;5411;58.386;15.560;2023-05-21T03:10:17;101776.63;;;10.12;87.29
10720;BME280;5411;58.386;15.560;2023-05-21T03:12:45;101773.97;;;10.20;87.42
10720;BME280;5411;58.386;15.560;2023-05-21T03:15:15;101772.28;;;10.27;87.40
10720;BME280;5411;58.386;15.560;2023-05-21T03:17:43;101766.97;;;10.35;86.01
10720;BME280;5411;58.386;15.560;2023-05-21T03:20:13;101759.75;;;10.44;85.29
10720;BME280;5411;58.386;15.560;2023-05-21T03:22:46;101756.06;;;10.53;84.74
10720;BME280;5411;58.386;15.560;2023-05-21T03:25:15;101751.56;;;10.61;84.20
10720;BME280;5411;58.386;15.560;2023-05-21T03:27:43;101748.53;;;10.73;83.99
10720;BME280;5411;58.386;15.560;2023-05-21T03:30:12;101752.88;;;10.82;84.35
10720;BME280;5411;58.386;15.560;2023-05-21T03:32:42;101745.50;;;10.92;84.78
10720;BME280;5411;58.386;15.560;2023-05-21T03:35:10;101748.81;;;11.02;84.11
10720;BME280;5411;58.386;15.560;2023-05-21T03:37:40;101748.28;;;11.06;83.32
10720;BME280;5411;58.386;15.560;2023-05-21T03:40:09;101744.94;;;11.13;82.44
10720;BME280;5411;58.386;15.560;2023-05-21T03:42:37;101742.59;;;11.18;81.43
10720;BME280;5411;58.386;15.560;2023-05-21T03:45:06;101743.22;;;11.20;80.44
10720;BME280;5411;58.386;15.560;2023-05-21T03:47:35;101748.41;;;11.29;81.02
10720;BME280;5411;58.386;15.560;2023-05-21T03:50:04;101737.81;;;11.36;80.69
10720;BME280;5411;58.386;15.560;2023-05-21T03:52:33;101738.25;;;11.48;81.17
10720;BME280;5411;58.386;15.560;2023-05-21T03:55:03;101744.22;;;11.66;81.09
10720;BME280;5411;58.386;15.560;2023-05-21T03:57:31;101738.78;;;11.74;80.46
10720;BME280;5411;58.386;15.560;2023-05-21T03:59:59;101743.78;;;11.85;79.57
10720;BME280;5411;58.386;15.560;2023-05-21T04:02:28;101740.56;;;11.98;78.20
10720;BME280;5411;58.386;15.560;2023-05-21T04:04:56;101740.59;;;12.12;77.89
10720;BME280;5411;58.386;15.560;2023-05-21T04:07:25;101747.88;;;12.27;77.91
10720;BME280;5411;58.386;15.560;2023-05-21T04:09:56;101747.25;;;12.39;77.47
10720;BME280;5411;58.386;15.560;2023-05-21T04:12:26;101753.59;;;12.46;76.47
10720;BME280;5411;58.386;15.560;2023-05-21T04:14:54;101741.75;;;12.56;75.59
10720;BME280;5411;58.386;15.560;2023-05-21T04:17:22;101746.84;;;12.65;76.33
10720;BME280;5411;58.386;15.560;2023-05-21T04:19:52;101748.66;;;12.73;76.95
10720;BME280;5411;58.386;15.560;2023-05-21T04:22:21;101748.28;;;12.76;76.40
10720;BME280;5411;58.386;15.560;2023-05-21T04:24:52;101747.72;;;12.80;76.87
10720;BME280;5411;58.386;15.560;2023-05-21T04:27:21;101745.50;;;12.84;76.29
10720;BME280;5411;58.386;15.560;2023-05-21T04:29:52;101749.59;;;12.95;76.51
10720;BME280;5411;58.386;15.560;2023-05-21T04:32:24;101743.13;;;13.04;75.74
10720;BME280;5411;58.386;15.560;2023-05-21T04:34:54;101741.19;;;13.12;75.71
10720;BME280;5411;58.386;15.560;2023-05-21T04:37:22;101738.59;;;13.19;74.59
10720;BME280;5411;58.386;15.560;2023-05-21T04:39:51;101750.28;;;13.26;74.61
10720;BME280;5411;58.386;15.560;2023-05-21T04:42:20;101737.75;;;13.33;73.78
10720;BME280;5411;58.386;15.560;2023-05-21T04:44:49;101740.72;;;13.38;74.32
10720;BME280;5411;58.386;15.560;2023-05-21T04:47:19;101737.88;;;13.40;73.88
10720;BME280;5411;58.386;15.560;2023-05-21T04:49:47;101741.63;;;13.45;73.77
10720;BME280;5411;58.386;15.560;2023-05-21T04:52:16;101741.75;;;13.52;73.90
10720;BME280;5411;58.386;15.560;2023-05-21T04:54:44;101741.56;;;13.53;72.53
10720;BME280;5411;58.386;15.560;2023-05-21T04:57:14;101736.25;;;13.60;73.56
10720;BME280;5411;58.386;15.560;2023-05-21T04:59:45;101745.69;;;13.71;73.38
10720;BME280;5411;58.386;15.560;2023-05-21T05:02:13;101737.78;;;13.84;72.52
10720;BME280;5411;58.386;15.560;2023-05-21T05:04:43;101739.97;;;13.95;72.32
10720;BME280;5411;58.386;15.560;2023-05-21T05:07:12;101738.91;;;14.11;71.95
10720;BME280;5411;58.386;15.560;2023-05-21T05:09:40;101734.25;;;14.26;71.29
10720;BME280;5411;58.386;15.560;2023-05-21T05:12:09;101730.41;;;14.35;70.22
10720;BME280;5411;58.386;15.560;2023-05-21T05:14:40;101730.00;;;14.38;70.01
10720;BME280;5411;58.386;15.560;2023-05-21T05:17:09;101734.47;;;14.46;70.40
10720;BME280;5411;58.386;15.560;2023-05-21T05:19:37;101734.28;;;14.47;69.17
10720;BME280;5411;58.386;15.560;2023-05-21T05:22:08;101725.84;;;14.57;69.27
10720;BME280;5411;58.386;15.560;2023-05-21T05:24:39;101729.69;;;14.69;68.48
10720;BME280;5411;58.386;15.560;2023-05-21T05:27:07;101734.88;;;14.71;67.85
10720;BME280;5411;58.386;15.560;2023-05-21T05:29:35;101730.56;;;14.76;67.95
10720;BME280;5411;58.386;15.560;2023-05-21T05:32:04;101736.91;;;14.90;68.12
10720;BME280;5411;58.386;15.560;2023-05-21T05:34:33;101737.38;;;15.00;66.93
10720;BME280;5411;58.386;15.560;2023-05-21T05:37:01;101737.81;;;15.04;66.52
10720;BME280;5411;58.386;15.560;2023-05-21T05:39:32;101733.28;;;15.11;66.12
10720;BME280;5411;58.386;15.560;2023-05-21T05:42:00;101723.97;;;15.20;67.11
10720;BME280;5411;58.386;15.560;2023-05-21T05:44:28;101731.09;;;15.34;67.63
10720;BME280;5411;58.386;15.560;2023-05-21T05:46:57;101727.88;;;15.52;67.38
10720;BME280;5411;58.386;15.560;2023-05-21T05:49:25;101718.84;;;15.73;66.61
10720;BME280;5411;58.386;15.560;2023-05-21T05:51:53;101727.41;;;15.89;66.03
10720;BME280;5411;58.386;15.560;2023-05-21T05:54:22;101721.19;;;16.02;65.06
10720;BME280;5411;58.386;15.560;2023-05-21T05:56:52;101725.16;;;16.13;64.29
10720;BME280;5411;58.386;15.560;2023-05-21T05:59:20;101718.75;;;16.20;64.60
10720;BME280;5411;58.386;15.560;2023-05-21T06:01:48;101720.41;;;16.34;63.47
10720;BME280;5411;58.386;15.560;2023-05-21T06:04:16;101717.50;;;16.43;62.62
10720;BME280;5411;58.386;15.560;2023-05-21T06:06:44;101726.44;;;16.50;60.75
10720;BME280;5411;58.386;15.560;2023-05-21T06:09:13;101718.53;;;16.55;60.51
10720;BME280;5411;58.386;15.560;2023-05-21T06:11:42;101719.16;;;16.57;60.72
10720;BME280;5411;58.386;15.560;2023-05-21T06:14:17;101716.06;;;16.66;60.03
10720;BME280;5411;58.386;15.560;2023-05-21T06:16:46;101709.41;;;16.76;60.17
10720;BME280;5411;58.386;15.560;2023-05-21T06:19:14;101711.06;;;16.83;60.34
10720;BME280;5411;58.386;15.560;2023-05-21T06:21:42;101710.22;;;16.89;58.54
10720;BME280;5411;58.386;15.560;2023-05-21T06:24:11;101712.66;;;17.10;59.00
10720;BME280;5411;58.386;15.560;2023-05-21T06:26:40;101708.03;;;17.31;58.58
10720;BME280;5411;58.386;15.560;2023-05-21T06:29:13;101699.59;;;17.45;57.43
10720;BME280;5411;58.386;15.560;2023-05-21T06:31:43;101705.19;;;17.64;57.32
10720;BME280;5411;58.386;15.560;2023-05-21T06:34:11;101707.19;;;17.82;57.78
10720;BME280;5411;58.386;15.560;2023-05-21T06:36:39;101710.66;;;17.89;56.18
10720;BME280;5411;58.386;15.560;2023-05-21T06:39:08;101710.44;;;17.90;55.15
10720;BME280;5411;58.386;15.560;2023-05-21T06:41:39;101710.63;;;17.95;56.97
10720;BME280;5411;58.386;15.560;2023-05-21T06:44:13;101706.19;;;18.07;56.35
10720;BME280;5411;58.386;15.560;2023-05-21T06:46:46;101708.41;;;18.17;54.84
10720;BME280;5411;58.386;15.560;2023-05-21T06:49:14;101702.94;;;18.24;54.48
10720;BME280;5411;58.386;15.560;2023-05-21T06:51:42;101702.03;;;18.30;54.06
10720;BME280;5411;58.386;15.560;2023-05-21T06:54:14;101709.66;;;18.39;53.29
10720;BME280;5411;58.386;15.560;2023-05-21T06:56:42;101708.63;;;18.40;50.18
10720;BME280;5411;58.386;15.560;2023-05-21T06:59:10;101711.53;;;18.39;51.86
10720;BME280;5411;58.386;15.560;2023-05-21T07:01:40;101706.47;;;18.49;52.13
10720;BME280;5411;58.386;15.560;2023-05-21T07:04:10;101700.59;;;18.52;51.40
10720;BME280;5411;58.386;15.560;2023-05-21T07:06:38;101699.09;;;18.63;51.03
10720;BME280;5411;58.386;15.560;2023-05-21T07:09:06;101697.31;;;18.75;50.36
10720;BME280;5411;58.386;15.560;2023-05-21T07:11:36;101699.50;;;18.84;50.14
10720;BME280;5411;58.386;15.560;2023-05-21T07:14:04;101697.31;;;18.93;49.42
10720;BME280;5411;58.386;15.560;2023-05-21T07:16:33;101697.63;;;19.03;46.78
10720;BME280;5411;58.386;15.560;2023-05-21T07:19:02;101698.16;;;19.12;46.65
10720;BME280;5411;58.386;15.560;2023-05-21T07:21:31;101695.50;;;19.23;46.25
10720;BME280;5411;58.386;15.560;2023-05-21T07:23:59;101693.56;;;19.31;46.55
10720;BME280;5411;58.386;15.560;2023-05-21T07:26:27;101692.41;;;19.38;44.88
10720;BME280;5411;58.386;15.560;2023-05-21T07:28:55;101701.38;;;19.39;44.74
10720;BME280;5411;58.386;15.560;2023-05-21T07:31:24;101705.31;;;19.43;44.01
10720;BME280;5411;58.386;15.560;2023-05-21T07:33:52;101695.41;;;19.48;44.97
10720;BME280;5411;58.386;15.560;2023-05-21T07:36:23;101692.16;;;19.58;44.62
10720;BME280;5411;58.386;15.560;2023-05-21T07:38:53;101694.81;;;19.65;44.36
10720;BME280;5411;58.386;15.560;2023-05-21T07:41:21;101685.66;;;19.59;43.62
10720;BME280;5411;58.386;15.560;2023-05-21T07:43:49;101688.75;;;19.63;45.22
10720;BME280;5411;58.386;15.560;2023-05-21T07:46:18;101688.91;;;19.68;46.27
10720;BME280;5411;58.386;15.560;2023-05-21T07:48:46;101679.75;;;19.80;46.34
10720;BME280;5411;58.386;15.560;2023-05-21T07:51:16;101680.00;;;19.90;45.56
10720;BME280;5411;58.386;15.560;2023-05-21T07:53:45;101673.06;;;19.95;45.03
10720;BME280;5411;58.386;15.560;2023-05-21T07:56:13;101677.06;;;19.92;44.44
10720;BME280;5411;58.386;15.560;2023-05-21T07:58:42;101677.31;;;20.02;45.13
10720;BME280;5411;58.386;15.560;2023-05-21T08:01:11;101673.44;;;20.10;43.62
10720;BME280;5411;58.386;15.560;2023-05-21T08:03:40;101670.72;;;20.10;44.60
10720;BME280;5411;58.386;15.560;2023-05-21T08:06:08;101670.47;;;20.11;44.19
10720;BME280;5411;58.386;15.560;2023-05-21T08:08:37;101670.72;;;20.10;44.09
10720;BME280;5411;58.386;15.560;2023-05-21T08:11:07;101677.56;;;20.12;43.86
10720;BME280;5411;58.386;15.560;2023-05-21T08:13:35;101674.75;;;20.19;43.36
10720;BME280;5411;58.386;15.560;2023-05-21T08:16:04;101674.41;;;20.27;43.03
10720;BME280;5411;58.386;15.560;2023-05-21T08:18:33;101676.22;;;20.45;43.58
10720;BME280;5411;58.386;15.560;2023-05-21T08:21:01;101675.88;;;20.53;43.42
10720;BME280;5411;58.386;15.560;2023-05-21T08:23:30;101670.31;;;20.48;43.39
10720;BME280;5411;58.386;15.560;2023-05-21T08:25:58;101665.00;;;20.53;43.49
10720;BME280;5411;58.386;15.560;2023-05-21T08:28:28;101669.72;;;20.57;42.89
10720;BME280;5411;58.386;15.560;2023-05-21T08:30:57;101670.66;;;20.51;41.80
10720;BME280;5411;58.386;15.560;2023-05-21T08:33:25;101671.97;;;20.60;41.49
10720;BME280;5411;58.386;15.560;2023-05-21T08:35:56;101669.94;;;20.68;40.94
10720;BME280;5411;58.386;15.560;2023-05-21T08:38:28;101664.84;;;20.83;41.07
10720;BME280;5411;58.386;15.560;2023-05-21T08:40:58;101672.34;;;20.76;40.04
10720;BME280;5411;58.386;15.560;2023-05-21T08:43:28;101660.97;;;20.67;40.60
10720;BME280;5411;58.386;15.560;2023-05-21T08:45:59;101662.63;;;20.56;40.67
10720;BME280;5411;58.386;15.560;2023-05-21T08:48:34;101661.81;;;20.56;41.67
10720;BME280;5411;58.386;15.560;2023-05-21T08:51:04;101669.25;;;20.72;41.85
10720;BME280;5411;58.386;15.560;2023-05-21T08:53:33;101668.28;;;21.02;41.73
10720;BME280;5411;58.386;15.560;2023-05-21T08:56:01;101666.78;;;21.34;41.33
10720;BME280;5411;58.386;15.560;2023-05-21T08:58:32;101667.03;;;21.61;40.35
10720;BME280;5411;58.386;15.560;2023-05-21T09:01:02;101675.56;;;21.64;39.91
10720;BME280;5411;58.386;15.560;2023-05-21T09:03:32;101667.25;;;21.88;39.79
10720;BME280;5411;58.386;15.560;2023-05-21T09:06:00;101667.06;;;22.06;39.74
10720;BME280;5411;58.386;15.560;2023-05-21T09:08:31;101674.41;;;22.06;38.76
10720;BME280;5411;58.386;15.560;2023-05-21T09:11:02;101664.34;;;22.06;38.56
10720;BME280;5411;58.386;15.560;2023-05-21T09:13:33;101674.94;;;21.91;39.12
10720;BME280;5411;58.386;15.560;2023-05-21T09:16:06;101680.81;;;21.83;39.89
10720;BME280;5411;58.386;15.560;2023-05-21T09:18:34;101674.31;;;21.72;39.61
10720;BME280;5411;58.386;15.560;2023-05-21T09:21:24;101667.97;;;21.66;40.61
10720;BME280;5411;58.386;15.560;2023-05-21T09:23:54;101667.28;;;21.59;40.76
10720;BME280;5411;58.386;15.560;2023-05-21T09:26:23;101672.28;;;21.51;40.67
10720;BME280;5411;58.386;15.560;2023-05-21T09:28:58;101670.44;;;21.40;40.35
10720;BME280;5411;58.386;15.560;2023-05-21T09:31:28;101667.53;;;21.29;40.03
10720;BME280;5411;58.386;15.560;2023-05-21T09:33:56;101667.16;;;21.26;39.88
10720;BME280;5411;58.386;15.560;2023-05-21T09:36:26;101661.56;;;21.32;40.80
10720;BME280;5411;58.386;15.560;2023-05-21T09:38:55;101663.81;;;21.36;40.38
10720;BME280;5411;58.386;15.560;2023-05-21T09:41:32;101663.69;;;21.42;39.79
10720;BME280;5411;58.386;15.560;2023-05-21T09:44:03;101663.97;;;21.57;40.50
10720;BME280;5411;58.386;15.560;2023-05-21T09:46:38;101662.94;;;21.75;39.89
10720;BME280;5411;58.386;15.560;2023-05-21T09:49:21;101660.81;;;21.94;40.14
10720;BME280;5411;58.386;15.560;2023-05-21T09:51:54;101654.66;;;22.15;40.44
10720;BME280;5411;58.386;15.560;2023-05-21T09:54:30;101664.06;;;22.24;38.75
10720;BME280;5411;58.386;15.560;2023-05-21T09:56:59;101652.28;;;22.35;39.53
10720;BME280;5411;58.386;15.560;2023-05-21T09:59:37;101644.88;;;22.53;39.22
10720;BME280;5411;58.386;15.560;2023-05-21T10:02:15;101644.63;;;22.54;37.72
10720;BME280;5411;58.386;15.560;2023-05-21T10:04:47;101645.47;;;22.55;37.99
10720;BME280;5411;58.386;15.560;2023-05-21T10:07:18;101638.66;;;22.74;38.10
10720;BME280;5411;58.386;15.560;2023-05-21T10:09:47;101647.19;;;22.61;38.40
10720;BME280;5411;58.386;15.560;2023-05-21T10:12:17;101640.78;;;22.89;39.39
10720;BME280;5411;58.386;15.560;2023-05-21T10:14:50;101634.88;;;22.97;37.79
10720;BME280;5411;58.386;15.560;2023-05-21T10:17:22;101639.25;;;22.98;38.25
10720;BME280;5411;58.386;15.560;2023-05-21T10:19:54;101639.84;;;23.00;38.23
10720;BME280;5411;58.386;15.560;2023-05-21T10:22:24;101630.03;;;23.04;38.93
10720;BME280;5411;58.386;15.560;2023-05-21T10:24:52;101628.78;;;22.90;38.17
10720;BME280;5411;58.386;15.560;2023-05-21T10:27:21;101630.41;;;22.91;39.83
10720;BME280;5411;58.386;15.560;2023-05-21T10:29:53;101625.91;;;22.80;39.64
10720;BME280;5411;58.386;15.560;2023-05-21T10:32:24;101627.31;;;22.65;40.00
10720;BME280;5411;58.386;15.560;2023-05-21T10:34:56;101630.75;;;22.56;40.73
10720;BME280;5411;58.386;15.560;2023-05-21T10:37:27;101617.94;;;22.39;40.67
10720;BME280;5411;58.386;15.560;2023-05-21T10:39:56;101625.16;;;22.29;41.02
10720;BME280;5411;58.386;15.560;2023-05-21T10:42:56;101621.22;;;22.58;40.54
10720;BME280;5411;58.386;15.560;2023-05-21T10:45:41;101617.22;;;22.66;40.42
10720;BME280;5411;58.386;15.560;2023-05-21T10:48:23;101611.69;;;22.78;40.13
10720;BME280;5411;58.386;15.560;2023-05-21T10:51:15;101605.34;;;22.94;40.85
10720;BME280;5411;58.386;15.560;2023-05-21T10:54:18;101604.44;;;23.10;40.16
10720;BME280;5411;58.386;15.560;2023-05-21T10:57:01;101599.56;;;23.12;40.22
10720;BME280;5411;58.386;15.560;2023-05-21T10:59:39;101598.38;;;23.03;40.15
10720;BME280;5411;58.386;15.560;2023-05-21T11:02:11;101597.28;;;23.04;40.04
10720;BME280;5411;58.386;15.560;2023-05-21T11:04:41;101591.63;;;23.10;41.30
10720;BME280;5411;58.386;15.560;2023-05-21T11:07:11;101593.97;;;23.24;40.54
10720;BME280;5411;58.386;15.560;2023-05-21T11:09:39;101588.59;;;23.34;41.35
10720;BME280;5411;58.386;15.560;2023-05-21T11:12:08;101589.00;;;23.48;39.37
10720;BME280;5411;58.386;15.560;2023-05-21T11:14:39;101599.88;;;23.64;39.89
10720;BME280;5411;58.386;15.560;2023-05-21T11:17:11;101582.72;;;23.74;39.80
10720;BME280;5411;58.386;15.560;2023-05-21T11:19:41;101588.00;;;23.80;38.27
10720;BME280;5411;58.386;15.560;2023-05-21T11:22:20;101590.91;;;23.74;39.35
10720;BME280;5411;58.386;15.560;2023-05-21T11:24:49;101578.38;;;23.78;38.95
10720;BME280;5411;58.386;15.560;2023-05-21T11:27:31;101580.34;;;23.83;38.98
10720;BME280;5411;58.386;15.560;2023-05-21T11:30:03;101581.56;;;23.97;39.06
10720;BME280;5411;58.386;15.560;2023-05-21T11:32:35;101580.81;;;24.11;38.85
10720;BME280;5411;58.386;15.560;2023-05-21T11:35:05;101578.09;;;24.11;39.00
10720;BME280;5411;58.386;15.560;2023-05-21T11:37:34;101575.91;;;24.08;39.45
10720;BME280;5411;58.386;15.560;2023-05-21T11:40:17;101586.72;;;23.93;39.19
10720;BME280;5411;58.386;15.560;2023-05-21T11:42:48;101577.81;;;23.76;39.30
10720;BME280;5411;58.386;15.560;2023-05-21T11:45:18;101573.44;;;23.75;39.09
10720;BME280;5411;58.386;15.560;2023-05-21T11:47:48;101567.59;;;23.93;39.59
10720;BME280;5411;58.386;15.560;2023-05-21T11:50:18;101571.97;;;23.94;38.76
10720;BME280;5411;58.386;15.560;2023-05-21T11:52:47;101563.19;;;23.92;39.15
10720;BME280;5411;58.386;15.560;2023-05-21T11:55:20;101563.06;;;24.09;38.90
10720;BME280;5411;58.386;15.560;2023-05-21T11:57:52;101554.28;;;24.12;38.73
10720;BME280;5411;58.386;15.560;2023-05-21T12:00:21;101555.78;;;24.25;39.04
10720;BME280;5411;58.386;15.560;2023-05-21T12:02:51;101560.28;;;24.46;39.01
10720;BME280;5411;58.386;15.560;2023-05-21T12:05:23;101564.72;;;24.57;39.30
10720;BME280;5411;58.386;15.560;2023-05-21T12:07:52;101560.59;;;24.55;38.28
10720;BME280;5411;58.386;15.560;2023-05-21T12:10:22;101557.56;;;24.46;38.91
10720;BME280;5411;58.386;15.560;2023-05-21T12:12:50;101567.88;;;24.34;39.17
10720;BME280;5411;58.386;15.560;2023-05-21T12:15:24;101557.78;;;24.39;38.94
10720;BME280;5411;58.386;15.560;2023-05-21T12:17:55;101549.41;;;24.66;38.55
10720;BME280;5411;58.386;15.560;2023-05-21T12:20:25;101540.69;;;24.69;38.81
10720;BME280;5411;58.386;15.560;2023-05-21T12:22:56;101547.91;;;24.96;38.46
10720;BME280;5411;58.386;15.560;2023-05-21T12:25:27;101546.31;;;25.10;38.92
10720;BME280;5411;58.386;15.560;2023-05-21T12:27:55;101548.00;;;25.16;37.94
10720;BME280;5411;58.386;15.560;2023-05-21T12:30:24;101547.72;;;25.23;38.84
10720;BME280;5411;58.386;15.560;2023-05-21T12:32:58;101548.50;;;25.18;37.92
10720;BME280;5411;58.386;15.560;2023-05-21T12:35:29;101544.63;;;24.94;38.19
10720;BME280;5411;58.386;15.560;2023-05-21T12:38:00;101538.25;;;24.73;38.08
10720;BME280;5411;58.386;15.560;2023-05-21T12:40:36;101536.78;;;24.50;39.40
10720;BME280;5411;58.386;15.560;2023-05-21T12:43:06;101540.53;;;24.39;39.10
10720;BME280;5411;58.386;15.560;2023-05-21T12:45:36;101538.63;;;24.39;39.58
10720;BME280;5411;58.386;15.560;2023-05-21T12:48:08;101531.09;;;24.67;40.09
10720;BME280;5411;58.386;15.560;2023-05-21T12:50:38;101534.47;;;24.89;39.24
10720;BME280;5411;58.386;15.560;2023-05-21T12:53:08;101523.84;;;25.08;38.63
10720;BME280;5411;58.386;15.560;2023-05-21T12:55:38;101532.06;;;25.18;37.65
10720;BME280;5411;58.386;15.560;2023-05-21T12:58:06;101529.34;;;25.13;37.88
10720;BME280;5411;58.386;15.560;2023-05-21T13:00:35;101520.28;;;25.17;37.90
10720;BME280;5411;58.386;15.560;2023-05-21T13:03:14;101521.41;;;25.32;38.40
10720;BME280;5411;58.386;15.560;2023-05-21T13:05:42;101510.47;;;25.42;38.39
10720;BME280;5411;58.386;15.560;2023-05-21T13:08:11;101519.81;;;25.61;38.35